createdAt,value
2018-10-21T00:00:12.211Z,8.00
2018-10-21T00:02:41.398Z,8.00
2018-10-21T00:05:10.975Z,8.00
2018-10-21T00:07:39.863Z,8.10
2018-10-21T00:10:09.784Z,8.10
2018-10-21T00:12:38.442Z,8.10
2018-10-21T00:15:13.703Z,8.10
2018-10-21T00:17:42.158Z,8.10
2018-10-21T00:20:10.629Z,8.10
2018-10-21T00:22:39.083Z,8.10
2018-10-21T00:25:08.002Z,8.00
2018-10-21T00:27:36.451Z,8.00
2018-10-21T00:30:05.029Z,8.00
2018-10-21T00:32:52.211Z,8.00
2018-10-21T00:35:20.667Z,8.10
2018-10-21T00:37:49.114Z,8.00
2018-10-21T00:40:17.615Z,7.90
2018-10-21T00:42:46.054Z,7.80
2018-10-21T00:45:14.640Z,7.80
2018-10-21T00:47:43.069Z,7.80
2018-10-21T00:50:11.882Z,7.70
2018-10-21T00:52:40.311Z,7.70
2018-10-21T00:55:09.961Z,7.50
2018-10-21T00:57:38.431Z,7.50
2018-10-21T01:00:08.994Z,7.50
2018-10-21T01:02:37.594Z,7.60
2018-10-21T01:05:06.923Z,7.50
2018-10-21T01:07:35.380Z,7.40
2018-10-21T01:10:03.900Z,7.30
2018-10-21T01:12:32.347Z,7.30
2018-10-21T01:15:01.214Z,7.30
2018-10-21T01:17:29.623Z,7.30
2018-10-21T01:19:58.110Z,7.40
2018-10-21T01:22:26.803Z,7.50
2018-10-21T01:24:55.256Z,7.40
2018-10-21T01:27:23.704Z,7.30
2018-10-21T01:29:52.145Z,7.20
2018-10-21T01:32:20.572Z,7.20
2018-10-21T01:34:49.043Z,7.30
2018-10-21T01:37:18.145Z,7.30
2018-10-21T01:40:51.346Z,7.20
2018-10-21T01:43:21.359Z,7.10
2018-10-21T01:45:49.864Z,7.10
2018-10-21T01:48:19.535Z,7.10
2018-10-21T01:50:48.087Z,7.10
2018-10-21T01:53:17.527Z,6.90
2018-10-21T01:55:46.349Z,6.90
2018-10-21T01:58:14.808Z,7.10
2018-10-21T02:00:43.803Z,7.00
2018-10-21T02:03:12.650Z,6.80
2018-10-21T02:05:41.988Z,6.80
2018-10-21T02:08:10.506Z,6.90
2018-10-21T02:10:39.042Z,6.90
2018-10-21T02:13:07.859Z,6.80
2018-10-21T02:15:36.330Z,6.70
2018-10-21T02:18:04.983Z,6.70
2018-10-21T02:20:33.750Z,6.80
2018-10-21T02:23:02.209Z,6.70
2018-10-21T02:25:31.061Z,6.70
2018-10-21T02:27:59.525Z,6.70
2018-10-21T02:30:29.142Z,6.90
2018-10-21T02:32:58.629Z,6.90
2018-10-21T02:35:27.382Z,6.70
2018-10-21T02:37:56.826Z,6.60
2018-10-21T02:41:41.607Z,6.60
2018-10-21T02:44:11.667Z,6.50
2018-10-21T02:46:40.701Z,6.60
2018-10-21T02:49:09.849Z,6.50
2018-10-21T02:51:38.585Z,6.60
2018-10-21T02:54:07.743Z,6.60
2018-10-21T02:56:36.238Z,6.50
2018-10-21T02:59:05.198Z,6.60
2018-10-21T03:01:33.871Z,6.70
2018-10-21T03:04:02.371Z,6.70
2018-10-21T03:06:30.871Z,6.70
2018-10-21T03:08:59.469Z,6.70
2018-10-21T03:11:27.830Z,6.70
2018-10-21T03:13:56.314Z,6.70
2018-10-21T03:16:25.049Z,6.70
2018-10-21T03:18:53.561Z,6.80
2018-10-21T03:21:22.213Z,6.60
2018-10-21T03:23:50.901Z,6.70
2018-10-21T03:26:19.410Z,6.70
2018-10-21T03:28:47.895Z,6.70
2018-10-21T03:31:16.815Z,6.60
2018-10-21T03:33:45.320Z,6.60
2018-10-21T03:36:13.775Z,6.90
2018-10-21T03:38:42.322Z,6.80
2018-10-21T03:41:11.369Z,6.80
2018-10-21T03:43:39.917Z,6.80
2018-10-21T03:46:08.625Z,6.80
2018-10-21T03:48:37.070Z,6.70
2018-10-21T03:51:05.587Z,6.50
2018-10-21T03:53:34.054Z,6.50
2018-10-21T03:56:02.538Z,6.50
2018-10-21T03:58:31.056Z,6.40
2018-10-21T04:00:59.558Z,6.50
2018-10-21T04:03:28.079Z,6.40
2018-10-21T04:05:56.573Z,6.50
2018-10-21T04:08:25.311Z,6.40
2018-10-21T04:10:53.802Z,6.30
2018-10-21T04:13:22.283Z,6.30
2018-10-21T04:15:51.354Z,6.20
2018-10-21T04:18:19.872Z,6.10
2018-10-21T04:20:48.338Z,6.10
2018-10-21T04:23:17.114Z,6.30
2018-10-21T04:25:45.581Z,6.30
2018-10-21T04:28:14.121Z,6.30
2018-10-21T04:30:43.195Z,6.40
2018-10-21T04:33:44.648Z,6.40
2018-10-21T04:36:15.040Z,6.20
2018-10-21T04:38:54.935Z,6.20
2018-10-21T04:41:23.399Z,6.10
2018-10-21T04:43:51.887Z,6.00
2018-10-21T04:46:20.378Z,6.10
2018-10-21T04:48:48.885Z,6.00
2018-10-21T04:51:17.379Z,5.70
2018-10-21T04:53:45.879Z,5.70
2018-10-21T04:56:14.348Z,5.90
2018-10-21T04:58:43.071Z,5.90
2018-10-21T05:01:11.787Z,5.90
2018-10-21T05:03:40.546Z,6.00
2018-10-21T05:06:09.000Z,6.20
2018-10-21T05:08:37.494Z,6.20
2018-10-21T05:11:06.200Z,6.10
2018-10-21T05:13:34.678Z,6.00
2018-10-21T05:16:03.203Z,6.00
2018-10-21T05:18:31.661Z,5.90
2018-10-21T05:21:00.524Z,5.90
2018-10-21T05:23:29.010Z,6.00
2018-10-21T05:25:57.538Z,6.00
2018-10-21T05:28:26.060Z,5.80
2018-10-21T05:30:54.530Z,5.90
2018-10-21T05:33:22.998Z,5.90
2018-10-21T05:35:51.763Z,5.90
2018-10-21T05:38:20.249Z,5.80
2018-10-21T05:40:48.738Z,5.80
2018-10-21T05:43:17.811Z,5.60
2018-10-21T05:45:46.821Z,5.60
2018-10-21T05:48:15.651Z,5.50
2018-10-21T05:50:44.498Z,5.50
2018-10-21T05:53:12.964Z,5.40
2018-10-21T05:55:41.508Z,5.50
2018-10-21T05:58:09.990Z,5.60
2018-10-21T06:00:38.738Z,5.70
2018-10-21T06:03:07.532Z,5.50
2018-10-21T06:05:43.594Z,5.50
2018-10-21T06:08:12.093Z,5.60
2018-10-21T06:10:41.115Z,5.60
2018-10-21T06:13:10.386Z,5.60
2018-10-21T06:15:38.938Z,5.60
2018-10-21T06:18:10.091Z,5.80
2018-10-21T06:20:44.027Z,5.70
2018-10-21T06:23:12.875Z,5.60
2018-10-21T06:25:41.370Z,5.80
2018-10-21T06:28:09.847Z,5.90
2018-10-21T06:30:38.383Z,5.80
2018-10-21T06:33:06.885Z,5.80
2018-10-21T06:35:35.400Z,5.60
2018-10-21T06:38:03.923Z,5.90
2018-10-21T06:40:32.439Z,5.70
2018-10-21T06:43:01.020Z,5.80
2018-10-21T06:45:29.550Z,5.80
2018-10-21T06:47:58.595Z,5.80
2018-10-21T06:50:27.133Z,5.80
2018-10-21T06:52:56.060Z,5.80
2018-10-21T06:55:24.555Z,6.00
2018-10-21T06:57:53.209Z,6.20
2018-10-21T07:00:28.282Z,6.30
2018-10-21T07:02:56.797Z,6.20
2018-10-21T07:06:40.318Z,6.20
2018-10-21T07:09:09.128Z,6.00
2018-10-21T07:11:37.639Z,6.00
2018-10-21T07:14:06.179Z,6.10
2018-10-21T07:16:35.354Z,6.00
2018-10-21T07:19:03.775Z,6.40
2018-10-21T07:21:32.287Z,6.40
2018-10-21T07:24:00.776Z,6.50
2018-10-21T07:26:29.572Z,6.90
2018-10-21T07:28:58.059Z,7.10
2018-10-21T07:31:26.582Z,7.20
2018-10-21T07:33:55.077Z,7.20
2018-10-21T07:36:23.898Z,7.40
2018-10-21T07:38:52.330Z,7.50
2018-10-21T07:41:20.843Z,7.60
2018-10-21T07:43:49.435Z,7.80
2018-10-21T07:46:17.970Z,8.00
2018-10-21T07:48:46.434Z,8.20
2018-10-21T07:51:15.224Z,8.40
2018-10-21T07:53:43.997Z,8.70
2018-10-21T07:56:12.728Z,8.80
2018-10-21T07:58:41.259Z,8.90
2018-10-21T08:01:09.779Z,9.10
2018-10-21T08:03:38.279Z,9.20
2018-10-21T08:06:30.307Z,9.30
2018-10-21T08:08:59.213Z,9.20
2018-10-21T08:11:27.727Z,9.10
2018-10-21T08:13:56.206Z,9.30
2018-10-21T08:16:24.704Z,9.30
2018-10-21T08:18:53.798Z,9.10
2018-10-21T08:21:22.346Z,8.80
2018-10-21T08:23:50.753Z,8.80
2018-10-21T08:26:19.202Z,9.30
2018-10-21T08:28:48.291Z,9.40
2018-10-21T08:31:16.763Z,9.70
2018-10-21T08:33:45.246Z,10.20
2018-10-21T08:36:14.011Z,10.30
2018-10-21T08:38:42.783Z,10.30
2018-10-21T08:41:11.252Z,10.50
2018-10-21T08:43:39.748Z,10.60
2018-10-21T08:46:08.629Z,10.80
2018-10-21T08:48:37.055Z,10.70
2018-10-21T08:51:05.575Z,10.90
2018-10-21T08:53:34.048Z,11.20
2018-10-21T08:56:02.590Z,11.40
2018-10-21T08:58:31.036Z,11.60
2018-10-21T09:00:59.566Z,11.90
2018-10-21T09:03:28.347Z,12.00
2018-10-21T09:05:57.491Z,12.20
2018-10-21T09:08:25.981Z,12.00
2018-10-21T09:10:57.425Z,11.90
2018-10-21T09:13:27.441Z,11.90
2018-10-21T09:15:58.342Z,12.10
2018-10-21T09:18:26.809Z,12.60
2018-10-21T09:20:55.369Z,12.80
2018-10-21T09:23:23.843Z,12.90
2018-10-21T09:25:52.399Z,12.90
2018-10-21T09:28:20.884Z,12.70
2018-10-21T09:30:49.669Z,12.30
2018-10-21T09:33:18.217Z,12.50
2018-10-21T09:35:47.340Z,13.00
2018-10-21T09:38:16.639Z,12.80
2018-10-21T09:40:45.155Z,12.50
2018-10-21T09:43:13.713Z,12.90
2018-10-21T09:45:42.195Z,13.20
2018-10-21T09:48:10.681Z,13.50
2018-10-21T09:50:39.235Z,13.60
2018-10-21T09:53:07.796Z,13.90
2018-10-21T09:55:36.336Z,14.20
2018-10-21T09:58:05.014Z,14.70
2018-10-21T10:00:38.712Z,14.90
2018-10-21T10:03:08.698Z,15.20
2018-10-21T10:05:37.534Z,15.30
2018-10-21T10:08:06.062Z,15.20
2018-10-21T10:10:34.594Z,15.30
2018-10-21T10:13:03.142Z,15.60
2018-10-21T10:15:31.879Z,15.80
2018-10-21T10:18:00.391Z,15.80
2018-10-21T10:20:28.916Z,16.10
2018-10-21T10:22:57.440Z,16.20
2018-10-21T10:25:26.266Z,16.20
2018-10-21T10:27:54.855Z,16.50
2018-10-21T10:30:23.424Z,16.70
2018-10-21T10:32:52.127Z,17.00
2018-10-21T10:35:21.131Z,16.90
2018-10-21T10:37:49.703Z,16.70
2018-10-21T10:40:18.287Z,16.40
2018-10-21T10:42:46.740Z,16.40
2018-10-21T10:45:15.570Z,16.80
2018-10-21T10:47:44.353Z,16.00
2018-10-21T10:50:12.838Z,16.60
2018-10-21T10:52:41.390Z,16.90
2018-10-21T10:55:10.243Z,17.10
2018-10-21T10:57:38.782Z,17.30
2018-10-21T11:00:09.235Z,17.50
2018-10-21T11:02:37.698Z,17.60
2018-10-21T11:05:06.816Z,17.40
2018-10-21T11:07:35.403Z,17.60
2018-10-21T11:10:04.042Z,17.70
2018-10-21T11:12:32.466Z,17.40
2018-10-21T11:15:01.006Z,17.50
2018-10-21T11:17:29.775Z,17.10
2018-10-21T11:19:58.643Z,17.50
2018-10-21T11:22:27.538Z,17.50
2018-10-21T11:24:56.288Z,17.80
2018-10-21T11:27:24.751Z,17.90
2018-10-21T11:29:53.366Z,18.00
2018-10-21T11:32:21.879Z,17.80
2018-10-21T11:34:50.431Z,17.80
2018-10-21T11:37:19.355Z,17.20
2018-10-21T11:39:47.823Z,17.40
2018-10-21T11:42:16.363Z,17.90
2018-10-21T11:44:44.910Z,18.10
2018-10-21T11:47:13.442Z,18.30
2018-10-21T11:49:42.231Z,18.50
2018-10-21T11:52:10.898Z,18.70
2018-10-21T11:54:39.314Z,18.60
2018-10-21T11:57:07.939Z,18.90
2018-10-21T11:59:36.401Z,19.10
2018-10-21T12:02:05.067Z,19.20
2018-10-21T12:04:33.563Z,19.40
2018-10-21T12:07:02.464Z,19.40
2018-10-21T12:09:31.211Z,19.50
2018-10-21T12:11:59.693Z,19.40
2018-10-21T12:14:28.563Z,19.30
2018-10-21T12:16:57.053Z,18.50
2018-10-21T12:19:26.077Z,18.60
2018-10-21T12:21:54.621Z,18.80
2018-10-21T12:24:23.423Z,18.50
2018-10-21T12:26:52.198Z,18.80
2018-10-21T12:29:20.805Z,18.90
2018-10-21T12:31:49.422Z,18.90
2018-10-21T12:34:18.023Z,19.30
2018-10-21T12:36:46.478Z,19.00
2018-10-21T12:39:14.999Z,18.80
2018-10-21T12:41:43.531Z,18.60
2018-10-21T12:44:12.299Z,18.70
2018-10-21T12:46:41.163Z,18.70
2018-10-21T12:49:09.759Z,18.90
2018-10-21T12:51:38.339Z,19.00
2018-10-21T12:54:06.972Z,19.20
2018-10-21T12:56:35.363Z,19.20
2018-10-21T12:59:03.818Z,19.10
2018-10-21T13:01:32.326Z,19.20
2018-10-21T13:04:01.378Z,19.10
2018-10-21T13:06:29.894Z,19.10
2018-10-21T13:08:58.594Z,19.20
2018-10-21T13:11:27.088Z,19.10
2018-10-21T13:13:55.520Z,18.90
2018-10-21T13:16:24.027Z,18.70
2018-10-21T13:18:52.473Z,18.60
2018-10-21T13:21:20.982Z,18.40
2018-10-21T13:23:49.757Z,18.40
2018-10-21T13:26:18.244Z,18.40
2018-10-21T13:28:47.191Z,18.50
2018-10-21T13:31:15.712Z,18.40
2018-10-21T13:33:44.390Z,18.50
2018-10-21T13:36:12.902Z,18.60
2018-10-21T13:38:42.081Z,18.60
2018-10-21T13:41:10.615Z,18.60
2018-10-21T13:43:39.079Z,18.50
2018-10-21T13:46:07.639Z,18.40
2018-10-21T13:48:36.044Z,18.40
2018-10-21T13:51:05.186Z,18.50
2018-10-21T13:53:34.354Z,18.40
2018-10-21T13:56:02.791Z,18.20
2018-10-21T13:58:31.748Z,18.20
2018-10-21T14:01:00.850Z,18.00
2018-10-21T14:03:29.379Z,18.10
2018-10-21T14:05:58.106Z,18.00
2018-10-21T14:08:26.652Z,17.70
2018-10-21T14:10:55.346Z,17.60
2018-10-21T14:13:23.828Z,17.60
2018-10-21T14:15:52.408Z,17.70
2018-10-21T14:18:21.222Z,17.60
2018-10-21T14:20:49.942Z,17.40
2018-10-21T14:23:18.468Z,17.20
2018-10-21T14:25:46.988Z,16.90
2018-10-21T14:28:15.410Z,16.80
2018-10-21T14:30:43.877Z,17.00
2018-10-21T14:33:12.400Z,17.00
2018-10-21T14:35:40.822Z,16.90
2018-10-21T14:38:09.381Z,16.90
2018-10-21T14:40:38.080Z,16.80
2018-10-21T14:43:07.459Z,16.70
2018-10-21T14:45:35.950Z,16.70
2018-10-21T14:48:05.549Z,16.60
2018-10-21T14:50:33.987Z,16.60
2018-10-21T14:53:02.582Z,16.70
2018-10-21T14:55:31.359Z,16.80
2018-10-21T14:58:00.061Z,16.60
2018-10-21T15:00:28.944Z,16.40
2018-10-21T15:02:57.377Z,16.60
2018-10-21T15:05:25.863Z,16.70
2018-10-21T15:07:54.380Z,16.60
2018-10-21T15:10:22.894Z,16.30
2018-10-21T15:12:51.392Z,16.40
2018-10-21T15:15:20.416Z,16.70
2018-10-21T15:17:49.178Z,16.70
2018-10-21T15:20:17.928Z,16.60
2018-10-21T15:22:46.475Z,16.80
2018-10-21T15:25:15.809Z,16.70
2018-10-21T15:27:44.303Z,16.50
2018-10-21T15:30:13.083Z,16.50
2018-10-21T15:32:41.825Z,16.40
2018-10-21T15:35:10.452Z,16.60
2018-10-21T15:37:40.035Z,16.60
2018-10-21T15:40:09.912Z,16.60
2018-10-21T15:42:38.485Z,16.60
2018-10-21T15:45:08.551Z,16.50
2018-10-21T15:47:37.104Z,16.30
2018-10-21T15:50:05.836Z,16.40
2018-10-21T15:52:34.262Z,16.30
2018-10-21T15:55:02.759Z,16.10
2018-10-21T15:57:31.206Z,15.90
2018-10-21T15:59:59.734Z,15.80
2018-10-21T16:02:28.237Z,15.70
2018-10-21T16:04:56.780Z,15.80
2018-10-21T16:07:25.384Z,15.80
2018-10-21T16:09:53.905Z,15.70
2018-10-21T16:12:22.439Z,15.60
2018-10-21T16:14:50.981Z,15.60
2018-10-21T16:17:20.144Z,15.50
2018-10-21T16:19:48.963Z,15.50
2018-10-21T16:22:19.856Z,15.40
2018-10-21T16:24:48.312Z,15.30
2018-10-21T16:27:16.810Z,15.20
2018-10-21T16:29:45.299Z,15.10
2018-10-21T16:32:14.369Z,14.90
2018-10-21T16:34:43.141Z,14.70
2018-10-21T16:37:11.615Z,14.60
2018-10-21T16:39:40.391Z,14.50
2018-10-21T16:42:09.067Z,14.20
2018-10-21T16:44:37.607Z,14.10
2018-10-21T16:47:06.410Z,13.90
2018-10-21T16:49:34.886Z,13.80
2018-10-21T16:52:03.336Z,13.70
2018-10-21T16:54:32.161Z,13.60
2018-10-21T16:57:00.666Z,13.70
2018-10-21T16:59:29.431Z,13.40
2018-10-21T17:01:57.930Z,13.40
2018-10-21T17:04:26.711Z,13.40
2018-10-21T17:06:55.244Z,13.40
2018-10-21T17:09:24.387Z,13.20
2018-10-21T17:11:53.707Z,13.10
2018-10-21T17:14:22.158Z,13.10
2018-10-21T17:16:50.665Z,13.00
2018-10-21T17:19:19.124Z,12.80
2018-10-21T17:21:47.634Z,12.70
2018-10-21T17:24:16.141Z,12.90
2018-10-21T17:26:44.895Z,12.70
2018-10-21T17:29:13.387Z,12.80
2018-10-21T17:31:41.860Z,12.60
2018-10-21T17:34:10.531Z,12.40
2018-10-21T17:36:38.983Z,12.20
2018-10-21T17:39:13.176Z,12.20
2018-10-21T17:41:41.639Z,12.10
2018-10-21T17:44:10.632Z,12.10
2018-10-21T17:46:39.212Z,12.10
2018-10-21T17:49:07.783Z,11.80
2018-10-21T17:51:36.614Z,11.70
2018-10-21T17:54:05.847Z,11.70
2018-10-21T17:56:38.490Z,11.50
2018-10-21T17:59:07.017Z,11.40
2018-10-21T18:01:35.861Z,11.40
2018-10-21T18:04:04.482Z,11.60
2018-10-21T18:06:32.898Z,11.70
2018-10-21T18:09:01.372Z,11.60
2018-10-21T18:11:30.473Z,11.40
2018-10-21T18:13:59.317Z,11.30
2018-10-21T18:16:27.755Z,11.30
2018-10-21T18:18:57.136Z,11.30
2018-10-21T18:21:25.892Z,11.10
2018-10-21T18:23:54.660Z,11.10
2018-10-21T18:26:23.291Z,11.00
2018-10-21T18:28:52.347Z,10.80
2018-10-21T18:31:20.831Z,10.80
2018-10-21T18:33:49.276Z,10.70
2018-10-21T18:36:18.023Z,10.80
2018-10-21T18:38:46.732Z,11.00
2018-10-21T18:41:15.716Z,10.90
2018-10-21T18:43:44.555Z,10.80
2018-10-21T18:46:13.428Z,10.70
2018-10-21T18:48:42.174Z,10.70
2018-10-21T18:51:10.614Z,10.70
2018-10-21T18:53:39.691Z,10.60
2018-10-21T18:56:08.462Z,10.60
2018-10-21T18:58:41.125Z,10.50
2018-10-21T19:01:09.719Z,10.50
2018-10-21T19:03:38.158Z,10.40
2018-10-21T19:06:06.698Z,10.40
2018-10-21T19:08:35.156Z,10.30
2018-10-21T19:11:06.735Z,10.40
2018-10-21T19:13:35.501Z,10.30
2018-10-21T19:16:04.079Z,10.30
2018-10-21T19:18:32.771Z,10.30
2018-10-21T19:21:01.308Z,10.30
2018-10-21T19:23:30.254Z,10.30
2018-10-21T19:25:58.703Z,10.10
2018-10-21T19:28:27.866Z,10.10
2018-10-21T19:30:56.391Z,10.10
2018-10-21T19:33:26.711Z,10.20
2018-10-21T19:35:55.719Z,10.10
2018-10-21T19:38:24.247Z,10.10
2018-10-21T19:40:53.029Z,10.10
2018-10-21T19:43:21.596Z,10.10
2018-10-21T19:45:50.328Z,9.90
2018-10-21T19:48:18.824Z,9.90
2018-10-21T19:50:47.684Z,9.90
2018-10-21T19:53:16.181Z,9.90
2018-10-21T19:55:44.729Z,9.80
2018-10-21T19:58:13.240Z,9.70
2018-10-21T20:00:41.706Z,9.80
2018-10-21T20:03:10.203Z,9.70
2018-10-21T20:05:38.725Z,9.60
2018-10-21T20:08:07.210Z,9.50
2018-10-21T20:10:35.690Z,9.50
2018-10-21T20:13:04.335Z,9.60
2018-10-21T20:15:33.341Z,9.50
2018-10-21T20:18:02.196Z,9.60
2018-10-21T20:20:31.295Z,9.60
2018-10-21T20:23:00.028Z,9.50
2018-10-21T20:25:28.746Z,9.40
2018-10-21T20:27:57.557Z,9.80
2018-10-21T20:30:26.022Z,9.60
2018-10-21T20:32:54.718Z,9.30
2018-10-21T20:35:23.072Z,9.20
2018-10-21T20:37:51.567Z,9.10
2018-10-21T20:40:20.329Z,9.20
2018-10-21T20:42:49.147Z,9.10
2018-10-21T20:45:17.942Z,9.10
2018-10-21T20:47:46.418Z,9.10
2018-10-21T20:50:14.928Z,9.20
2018-10-21T20:52:43.419Z,9.30
2018-10-21T20:55:12.189Z,9.30
2018-10-21T20:57:40.690Z,9.20
2018-10-21T21:00:09.301Z,9.00
2018-10-21T21:02:37.744Z,8.80
2018-10-21T21:05:08.306Z,8.80
2018-10-21T21:07:37.129Z,8.80
2018-10-21T21:10:07.782Z,8.80
2018-10-21T21:12:36.206Z,8.70
2018-10-21T21:15:04.935Z,8.60
2018-10-21T21:17:33.407Z,8.60
2018-10-21T21:20:01.940Z,8.70
2018-10-21T21:22:30.856Z,8.70
2018-10-21T21:24:59.598Z,8.70
2018-10-21T21:27:28.102Z,8.80
2018-10-21T21:29:56.934Z,8.70
2018-10-21T21:32:25.350Z,8.80
2018-10-21T21:34:53.868Z,8.80
2018-10-21T21:37:22.566Z,8.90
2018-10-21T21:39:51.073Z,9.10
2018-10-21T21:42:20.103Z,9.20
2018-10-21T21:44:48.590Z,9.10
2018-10-21T21:47:17.043Z,8.90
2018-10-21T21:49:45.819Z,8.90
2018-10-21T21:52:14.609Z,8.70
2018-10-21T21:54:43.335Z,8.60
2018-10-21T21:57:11.784Z,8.70
2018-10-21T21:59:40.295Z,8.70
2018-10-21T22:02:09.052Z,8.70
2018-10-21T22:04:37.521Z,8.70
2018-10-21T22:07:06.583Z,8.90
2018-10-21T22:09:35.153Z,9.00
2018-10-21T22:12:03.900Z,9.10
2018-10-21T22:14:32.881Z,8.80
2018-10-21T22:17:01.386Z,8.70
2018-10-21T22:19:30.183Z,8.70
2018-10-21T22:21:58.951Z,8.60
2018-10-21T22:24:27.418Z,8.70
2018-10-21T22:26:56.167Z,8.60
2018-10-21T22:29:24.698Z,8.50
2018-10-21T22:31:53.483Z,8.40
2018-10-21T22:34:21.975Z,8.40
2018-10-21T22:36:50.499Z,8.30
2018-10-21T22:39:18.977Z,8.50
2018-10-21T22:41:47.484Z,8.40
2018-10-21T22:44:15.954Z,8.40
2018-10-21T22:46:44.845Z,8.40
2018-10-21T22:49:13.266Z,8.40
2018-10-21T22:51:41.794Z,8.50
2018-10-21T22:54:10.344Z,8.70
2018-10-21T22:56:39.150Z,8.50
2018-10-21T22:59:07.986Z,8.20
2018-10-21T23:01:36.501Z,8.10
2018-10-21T23:04:05.166Z,8.00
2018-10-21T23:06:33.635Z,7.90
2018-10-21T23:09:02.458Z,8.00
2018-10-21T23:11:31.268Z,8.10
2018-10-21T23:14:00.580Z,8.20
2018-10-21T23:16:29.211Z,8.00
2018-10-21T23:19:10.467Z,7.90
2018-10-21T23:21:39.272Z,7.80
2018-10-21T23:24:07.855Z,8.00
2018-10-21T23:26:36.342Z,7.70
2018-10-21T23:29:04.967Z,7.70
2018-10-21T23:31:33.770Z,7.70
2018-10-21T23:34:02.291Z,7.80
2018-10-21T23:36:31.071Z,7.70
2018-10-21T23:38:59.541Z,7.60
2018-10-21T23:41:28.644Z,7.60
2018-10-21T23:43:57.127Z,7.80
2018-10-21T23:46:26.142Z,7.80
2018-10-21T23:48:54.602Z,7.80
2018-10-21T23:51:23.085Z,7.80
2018-10-21T23:53:51.536Z,7.90
2018-10-21T23:56:20.211Z,7.90
2018-10-21T23:58:48.680Z,7.70
